sensor_id;sensor_type;location;lat;lon;timestamp;P1;durP1;ratioP1;P2;durP2;ratioP2
19651;SDS011;9974;52.146;14.668;2022-09-24T00:01:19;14.80;;;9.80;;
19651;SDS011;9974;52.146;14.668;2022-09-24T00:03:49;11.63;;;8.20;;
19651;SDS011;9974;52.146;14.668;2022-09-24T00:06:26;15.05;;;9.13;;
19651;SDS011;9974;52.146;14.668;2022-09-24T00:08:54;15.30;;;9.73;;
19651;SDS011;9974;52.146;14.668;2022-09-24T00:11:22;18.13;;;9.48;;
19651;SDS011;9974;52.146;14.668;2022-09-24T00:13:50;17.83;;;9.43;;
19651;SDS011;9974;52.146;14.668;2022-09-24T00:16:17;13.13;;;8.25;;
19651;SDS011;9974;52.146;14.668;2022-09-24T00:18:46;11.38;;;7.85;;
19651;SDS011;9974;52.146;14.668;2022-09-24T00:21:12;15.00;;;8.65;;
19651;SDS011;9974;52.146;14.668;2022-09-24T00:23:43;16.35;;;8.68;;
19651;SDS011;9974;52.146;14.668;2022-09-24T00:26:13;16.30;;;8.88;;
19651;SDS011;9974;52.146;14.668;2022-09-24T00:28:57;13.85;;;9.13;;
19651;SDS011;9974;52.146;14.668;2022-09-24T00:31:24;12.63;;;8.95;;
19651;SDS011;9974;52.146;14.668;2022-09-24T00:33:50;14.32;;;9.32;;
19651;SDS011;9974;52.146;14.668;2022-09-24T00:36:19;13.70;;;8.82;;
19651;SDS011;9974;52.146;14.668;2022-09-24T00:38:50;14.57;;;9.07;;
19651;SDS011;9974;52.146;14.668;2022-09-24T00:41:23;14.45;;;9.18;;
19651;SDS011;9974;52.146;14.668;2022-09-24T00:43:52;12.52;;;8.80;;
19651;SDS011;9974;52.146;14.668;2022-09-24T00:46:25;18.13;;;9.93;;
19651;SDS011;9974;52.146;14.668;2022-09-24T00:49:11;15.45;;;9.63;;
19651;SDS011;9974;52.146;14.668;2022-09-24T00:51:41;14.32;;;9.27;;
19651;SDS011;9974;52.146;14.668;2022-09-24T00:54:12;16.95;;;10.25;;
19651;SDS011;9974;52.146;14.668;2022-09-24T00:56:51;15.77;;;9.25;;
19651;SDS011;9974;52.146;14.668;2022-09-24T00:59:17;16.85;;;9.40;;
19651;SDS011;9974;52.146;14.668;2022-09-24T01:01:47;16.65;;;9.80;;
19651;SDS011;9974;52.146;14.668;2022-09-24T01:04:15;15.48;;;9.68;;
19651;SDS011;9974;52.146;14.668;2022-09-24T01:06:45;15.82;;;9.93;;
19651;SDS011;9974;52.146;14.668;2022-09-24T01:09:11;15.55;;;9.90;;
19651;SDS011;9974;52.146;14.668;2022-09-24T01:11:40;15.18;;;9.15;;
19651;SDS011;9974;52.146;14.668;2022-09-24T01:26:28;18.80;;;8.95;;
19651;SDS011;9974;52.146;14.668;2022-09-24T01:29:27;12.48;;;8.20;;
19651;SDS011;9974;52.146;14.668;2022-09-24T01:32:07;14.55;;;8.68;;
19651;SDS011;9974;52.146;14.668;2022-09-24T01:34:54;12.85;;;8.60;;
19651;SDS011;9974;52.146;14.668;2022-09-24T01:37:28;14.98;;;8.77;;
19651;SDS011;9974;52.146;14.668;2022-09-24T01:39:58;13.15;;;8.18;;
19651;SDS011;9974;52.146;14.668;2022-09-24T01:42:26;13.98;;;8.02;;
19651;SDS011;9974;52.146;14.668;2022-09-24T01:44:54;13.32;;;8.57;;
19651;SDS011;9974;52.146;14.668;2022-09-24T01:47:29;15.27;;;7.78;;
19651;SDS011;9974;52.146;14.668;2022-09-24T01:50:03;10.45;;;7.82;;
19651;SDS011;9974;52.146;14.668;2022-09-24T01:52:34;13.02;;;8.57;;
19651;SDS011;9974;52.146;14.668;2022-09-24T01:55:09;14.60;;;8.32;;
19651;SDS011;9974;52.146;14.668;2022-09-24T01:57:40;11.20;;;7.88;;
19651;SDS011;9974;52.146;14.668;2022-09-24T02:00:12;10.48;;;7.57;;
19651;SDS011;9974;52.146;14.668;2022-09-24T02:02:55;13.75;;;8.27;;
19651;SDS011;9974;52.146;14.668;2022-09-24T02:08:51;14.70;;;8.13;;
19651;SDS011;9974;52.146;14.668;2022-09-24T02:11:03;15.07;;;8.25;;
19651;SDS011;9974;52.146;14.668;2022-09-24T02:14:11;11.85;;;7.72;;
19651;SDS011;9974;52.146;14.668;2022-09-24T02:16:33;10.40;;;7.57;;
19651;SDS011;9974;52.146;14.668;2022-09-24T02:19:06;10.00;;;6.80;;
19651;SDS011;9974;52.146;14.668;2022-09-24T02:21:38;12.98;;;8.55;;
19651;SDS011;9974;52.146;14.668;2022-09-24T02:24:16;13.13;;;7.70;;
19651;SDS011;9974;52.146;14.668;2022-09-24T02:26:47;13.15;;;8.05;;
19651;SDS011;9974;52.146;14.668;2022-09-24T02:29:13;12.50;;;7.80;;
19651;SDS011;9974;52.146;14.668;2022-09-24T02:31:43;11.40;;;7.88;;
19651;SDS011;9974;52.146;14.668;2022-09-24T02:34:22;11.30;;;8.40;;
19651;SDS011;9974;52.146;14.668;2022-09-24T02:36:59;13.10;;;8.55;;
19651;SDS011;9974;52.146;14.668;2022-09-24T02:39:31;13.70;;;8.63;;
19651;SDS011;9974;52.146;14.668;2022-09-24T02:41:56;14.35;;;8.50;;
19651;SDS011;9974;52.146;14.668;2022-09-24T02:44:23;13.38;;;8.75;;
19651;SDS011;9974;52.146;14.668;2022-09-24T02:46:50;14.38;;;9.20;;
19651;SDS011;9974;52.146;14.668;2022-09-24T02:49:16;13.98;;;8.18;;
19651;SDS011;9974;52.146;14.668;2022-09-24T02:51:42;13.77;;;8.50;;
19651;SDS011;9974;52.146;14.668;2022-09-24T02:54:08;14.45;;;9.32;;
19651;SDS011;9974;52.146;14.668;2022-09-24T02:56:35;15.52;;;10.43;;
19651;SDS011;9974;52.146;14.668;2022-09-24T02:59:01;16.20;;;10.85;;
19651;SDS011;9974;52.146;14.668;2022-09-24T03:01:28;15.63;;;9.38;;
19651;SDS011;9974;52.146;14.668;2022-09-24T03:03:54;16.73;;;8.68;;
19651;SDS011;9974;52.146;14.668;2022-09-24T03:06:20;15.63;;;10.13;;
19651;SDS011;9974;52.146;14.668;2022-09-24T03:08:47;14.45;;;8.82;;
19651;SDS011;9974;52.146;14.668;2022-09-24T03:11:13;14.23;;;10.20;;
19651;SDS011;9974;52.146;14.668;2022-09-24T03:13:39;14.07;;;9.70;;
19651;SDS011;9974;52.146;14.668;2022-09-24T03:16:05;13.60;;;9.15;;
19651;SDS011;9974;52.146;14.668;2022-09-24T03:18:32;15.05;;;9.68;;
19651;SDS011;9974;52.146;14.668;2022-09-24T03:21:09;13.00;;;9.13;;
19651;SDS011;9974;52.146;14.668;2022-09-24T03:23:37;13.32;;;9.57;;
19651;SDS011;9974;52.146;14.668;2022-09-24T03:26:03;15.13;;;8.55;;
19651;SDS011;9974;52.146;14.668;2022-09-24T03:28:29;12.65;;;8.02;;
19651;SDS011;9974;52.146;14.668;2022-09-24T03:30:55;12.82;;;8.93;;
19651;SDS011;9974;52.146;14.668;2022-09-24T03:33:34;14.63;;;10.23;;
19651;SDS011;9974;52.146;14.668;2022-09-24T03:36:09;13.95;;;9.90;;
19651;SDS011;9974;52.146;14.668;2022-09-24T03:38:38;16.57;;;9.77;;
19651;SDS011;9974;52.146;14.668;2022-09-24T03:41:05;15.13;;;9.55;;
19651;SDS011;9974;52.146;14.668;2022-09-24T03:43:32;14.95;;;9.32;;
19651;SDS011;9974;52.146;14.668;2022-09-24T03:45:59;13.73;;;9.35;;
19651;SDS011;9974;52.146;14.668;2022-09-24T03:48:25;13.82;;;9.60;;
19651;SDS011;9974;52.146;14.668;2022-09-24T03:50:53;11.98;;;8.10;;
19651;SDS011;9974;52.146;14.668;2022-09-24T03:53:19;15.20;;;8.70;;
19651;SDS011;9974;52.146;14.668;2022-09-24T03:55:46;13.32;;;8.75;;
19651;SDS011;9974;52.146;14.668;2022-09-24T03:58:18;13.00;;;8.93;;
19651;SDS011;9974;52.146;14.668;2022-09-24T04:00:44;14.18;;;9.85;;
19651;SDS011;9974;52.146;14.668;2022-09-24T04:03:09;13.75;;;8.60;;
19651;SDS011;9974;52.146;14.668;2022-09-24T04:05:36;13.65;;;9.15;;
19651;SDS011;9974;52.146;14.668;2022-09-24T04:08:02;11.90;;;8.38;;
19651;SDS011;9974;52.146;14.668;2022-09-24T04:10:29;13.73;;;9.25;;
19651;SDS011;9974;52.146;14.668;2022-09-24T04:12:55;14.82;;;10.02;;
19651;SDS011;9974;52.146;14.668;2022-09-24T04:15:21;12.43;;;8.80;;
19651;SDS011;9974;52.146;14.668;2022-09-24T04:17:51;13.05;;;8.38;;
19651;SDS011;9974;52.146;14.668;2022-09-24T04:20:19;12.50;;;9.30;;
19651;SDS011;9974;52.146;14.668;2022-09-24T04:22:47;12.63;;;9.00;;
19651;SDS011;9974;52.146;14.668;2022-09-24T04:25:13;12.45;;;9.05;;
19651;SDS011;9974;52.146;14.668;2022-09-24T04:27:40;15.32;;;9.50;;
19651;SDS011;9974;52.146;14.668;2022-09-24T04:30:07;12.90;;;9.27;;
19651;SDS011;9974;52.146;14.668;2022-09-24T04:32:34;15.73;;;9.80;;
19651;SDS011;9974;52.146;14.668;2022-09-24T04:34:59;14.20;;;10.32;;
19651;SDS011;9974;52.146;14.668;2022-09-24T04:37:25;13.43;;;9.77;;
19651;SDS011;9974;52.146;14.668;2022-09-24T04:39:51;15.95;;;10.90;;
19651;SDS011;9974;52.146;14.668;2022-09-24T04:42:17;12.68;;;9.85;;
19651;SDS011;9974;52.146;14.668;2022-09-24T04:44:43;15.00;;;10.70;;
19651;SDS011;9974;52.146;14.668;2022-09-24T04:47:11;15.95;;;11.23;;
19651;SDS011;9974;52.146;14.668;2022-09-24T04:49:38;17.88;;;11.00;;
19651;SDS011;9974;52.146;14.668;2022-09-24T04:52:10;15.60;;;11.02;;
19651;SDS011;9974;52.146;14.668;2022-09-24T04:54:40;17.25;;;12.50;;
19651;SDS011;9974;52.146;14.668;2022-09-24T04:57:10;15.35;;;10.80;;
19651;SDS011;9974;52.146;14.668;2022-09-24T04:59:37;15.00;;;10.60;;
19651;SDS011;9974;52.146;14.668;2022-09-24T05:02:02;16.55;;;10.95;;
19651;SDS011;9974;52.146;14.668;2022-09-24T05:04:30;14.55;;;9.45;;
19651;SDS011;9974;52.146;14.668;2022-09-24T05:06:56;13.68;;;9.48;;
19651;SDS011;9974;52.146;14.668;2022-09-24T05:09:22;18.27;;;10.20;;
19651;SDS011;9974;52.146;14.668;2022-09-24T05:11:48;15.35;;;10.35;;
19651;SDS011;9974;52.146;14.668;2022-09-24T05:14:14;17.75;;;9.77;;
19651;SDS011;9974;52.146;14.668;2022-09-24T05:16:40;14.67;;;9.83;;
19651;SDS011;9974;52.146;14.668;2022-09-24T05:19:06;13.83;;;9.97;;
19651;SDS011;9974;52.146;14.668;2022-09-24T05:21:32;17.50;;;9.75;;
19651;SDS011;9974;52.146;14.668;2022-09-24T05:23:58;10.75;;;8.98;;
19651;SDS011;9974;52.146;14.668;2022-09-24T05:26:24;12.30;;;9.10;;
19651;SDS011;9974;52.146;14.668;2022-09-24T05:29:09;12.70;;;9.27;;
19651;SDS011;9974;52.146;14.668;2022-09-24T05:31:34;11.68;;;9.27;;
19651;SDS011;9974;52.146;14.668;2022-09-24T05:34:00;14.63;;;9.30;;
19651;SDS011;9974;52.146;14.668;2022-09-24T05:36:27;15.32;;;10.05;;
19651;SDS011;9974;52.146;14.668;2022-09-24T05:38:53;15.48;;;9.85;;
19651;SDS011;9974;52.146;14.668;2022-09-24T05:41:19;11.68;;;9.13;;
19651;SDS011;9974;52.146;14.668;2022-09-24T05:43:45;12.90;;;9.50;;
19651;SDS011;9974;52.146;14.668;2022-09-24T05:46:11;14.40;;;10.52;;
19651;SDS011;9974;52.146;14.668;2022-09-24T05:48:37;14.23;;;9.98;;
19651;SDS011;9974;52.146;14.668;2022-09-24T05:51:03;13.88;;;9.30;;
19651;SDS011;9974;52.146;14.668;2022-09-24T05:53:29;13.60;;;10.10;;
19651;SDS011;9974;52.146;14.668;2022-09-24T05:55:55;15.50;;;10.10;;
19651;SDS011;9974;52.146;14.668;2022-09-24T05:58:22;13.57;;;9.70;;
19651;SDS011;9974;52.146;14.668;2022-09-24T06:00:49;13.80;;;9.95;;
19651;SDS011;9974;52.146;14.668;2022-09-24T06:03:15;15.10;;;8.85;;
19651;SDS011;9974;52.146;14.668;2022-09-24T06:05:45;14.20;;;9.18;;
19651;SDS011;9974;52.146;14.668;2022-09-24T06:08:13;13.48;;;9.05;;
19651;SDS011;9974;52.146;14.668;2022-09-24T06:10:41;13.05;;;9.75;;
19651;SDS011;9974;52.146;14.668;2022-09-24T06:13:08;12.00;;;8.60;;
19651;SDS011;9974;52.146;14.668;2022-09-24T06:15:35;13.07;;;9.35;;
19651;SDS011;9974;52.146;14.668;2022-09-24T06:18:02;14.82;;;10.07;;
19651;SDS011;9974;52.146;14.668;2022-09-24T06:20:29;12.35;;;8.73;;
19651;SDS011;9974;52.146;14.668;2022-09-24T06:22:55;14.88;;;9.25;;
19651;SDS011;9974;52.146;14.668;2022-09-24T06:25:21;16.73;;;9.30;;
19651;SDS011;9974;52.146;14.668;2022-09-24T06:27:55;13.68;;;9.15;;
19651;SDS011;9974;52.146;14.668;2022-09-24T06:30:27;13.23;;;8.52;;
19651;SDS011;9974;52.146;14.668;2022-09-24T06:33:06;11.98;;;8.75;;
19651;SDS011;9974;52.146;14.668;2022-09-24T06:35:35;12.13;;;9.27;;
19651;SDS011;9974;52.146;14.668;2022-09-24T06:38:03;12.77;;;8.50;;
19651;SDS011;9974;52.146;14.668;2022-09-24T06:40:29;10.68;;;8.23;;
19651;SDS011;9974;52.146;14.668;2022-09-24T06:42:55;14.60;;;10.27;;
19651;SDS011;9974;52.146;14.668;2022-09-24T06:45:21;16.77;;;9.13;;
19651;SDS011;9974;52.146;14.668;2022-09-24T06:47:54;16.67;;;8.57;;
19651;SDS011;9974;52.146;14.668;2022-09-24T06:50:22;18.98;;;9.80;;
19651;SDS011;9974;52.146;14.668;2022-09-24T06:52:50;12.50;;;8.77;;
19651;SDS011;9974;52.146;14.668;2022-09-24T06:55:17;11.25;;;8.35;;
19651;SDS011;9974;52.146;14.668;2022-09-24T06:57:43;12.93;;;7.78;;
19651;SDS011;9974;52.146;14.668;2022-09-24T07:00:09;13.70;;;8.20;;
19651;SDS011;9974;52.146;14.668;2022-09-24T07:02:37;21.17;;;13.48;;
19651;SDS011;9974;52.146;14.668;2022-09-24T07:05:04;16.95;;;11.68;;
19651;SDS011;9974;52.146;14.668;2022-09-24T07:07:31;14.13;;;10.27;;
19651;SDS011;9974;52.146;14.668;2022-09-24T07:10:06;13.27;;;8.30;;
19651;SDS011;9974;52.146;14.668;2022-09-24T07:12:33;9.63;;;6.65;;
19651;SDS011;9974;52.146;14.668;2022-09-24T07:15:00;9.35;;;6.72;;
19651;SDS011;9974;52.146;14.668;2022-09-24T07:17:26;13.50;;;7.65;;
19651;SDS011;9974;52.146;14.668;2022-09-24T07:19:52;10.20;;;7.35;;
19651;SDS011;9974;52.146;14.668;2022-09-24T07:22:19;9.73;;;6.68;;
19651;SDS011;9974;52.146;14.668;2022-09-24T07:24:45;12.13;;;6.82;;
19651;SDS011;9974;52.146;14.668;2022-09-24T07:27:12;12.35;;;7.50;;
19651;SDS011;9974;52.146;14.668;2022-09-24T07:29:39;12.70;;;8.13;;
19651;SDS011;9974;52.146;14.668;2022-09-24T07:32:05;11.27;;;7.82;;
19651;SDS011;9974;52.146;14.668;2022-09-24T07:34:30;12.73;;;6.43;;
19651;SDS011;9974;52.146;14.668;2022-09-24T07:36:56;10.50;;;7.22;;
19651;SDS011;9974;52.146;14.668;2022-09-24T07:39:23;14.23;;;6.90;;
19651;SDS011;9974;52.146;14.668;2022-09-24T07:41:49;9.77;;;6.65;;
19651;SDS011;9974;52.146;14.668;2022-09-24T07:44:16;10.93;;;6.78;;
19651;SDS011;9974;52.146;14.668;2022-09-24T07:46:45;11.68;;;7.25;;
19651;SDS011;9974;52.146;14.668;2022-09-24T07:49:12;8.65;;;6.38;;
19651;SDS011;9974;52.146;14.668;2022-09-24T07:51:38;8.20;;;5.80;;
19651;SDS011;9974;52.146;14.668;2022-09-24T07:54:04;11.38;;;6.97;;
19651;SDS011;9974;52.146;14.668;2022-09-24T07:56:30;8.80;;;6.32;;
19651;SDS011;9974;52.146;14.668;2022-09-24T07:58:56;10.27;;;6.95;;
19651;SDS011;9974;52.146;14.668;2022-09-24T08:01:22;9.82;;;7.03;;
19651;SDS011;9974;52.146;14.668;2022-09-24T08:03:50;12.00;;;6.90;;
19651;SDS011;9974;52.146;14.668;2022-09-24T08:06:16;7.82;;;5.88;;
19651;SDS011;9974;52.146;14.668;2022-09-24T08:08:43;8.13;;;6.18;;
19651;SDS011;9974;52.146;14.668;2022-09-24T08:11:10;9.25;;;6.13;;
19651;SDS011;9974;52.146;14.668;2022-09-24T08:13:41;8.63;;;6.38;;
19651;SDS011;9974;52.146;14.668;2022-09-24T08:16:07;12.02;;;6.88;;
19651;SDS011;9974;52.146;14.668;2022-09-24T08:18:33;9.38;;;6.25;;
19651;SDS011;9974;52.146;14.668;2022-09-24T08:21:05;9.10;;;6.35;;
19651;SDS011;9974;52.146;14.668;2022-09-24T08:23:34;10.43;;;6.35;;
19651;SDS011;9974;52.146;14.668;2022-09-24T08:26:01;12.98;;;6.80;;
19651;SDS011;9974;52.146;14.668;2022-09-24T08:28:27;9.30;;;6.68;;
19651;SDS011;9974;52.146;14.668;2022-09-24T08:31:00;11.00;;;5.95;;
19651;SDS011;9974;52.146;14.668;2022-09-24T08:33:28;8.95;;;6.10;;
19651;SDS011;9974;52.146;14.668;2022-09-24T08:35:57;9.10;;;6.75;;
19651;SDS011;9974;52.146;14.668;2022-09-24T08:38:24;10.45;;;6.25;;
19651;SDS011;9974;52.146;14.668;2022-09-24T08:41:14;8.68;;;5.60;;
19651;SDS011;9974;52.146;14.668;2022-09-24T08:44:02;8.85;;;5.57;;
19651;SDS011;9974;52.146;14.668;2022-09-24T08:46:37;8.82;;;5.65;;
19651;SDS011;9974;52.146;14.668;2022-09-24T08:49:30;9.20;;;5.82;;
19651;SDS011;9974;52.146;14.668;2022-09-24T08:52:18;11.13;;;7.22;;
19651;SDS011;9974;52.146;14.668;2022-09-24T08:54:54;10.60;;;5.88;;
19651;SDS011;9974;52.146;14.668;2022-09-24T08:57:26;8.85;;;5.95;;
19651;SDS011;9974;52.146;14.668;2022-09-24T08:59:52;8.13;;;6.03;;
19651;SDS011;9974;52.146;14.668;2022-09-24T09:11:23;9.38;;;5.70;;
19651;SDS011;9974;52.146;14.668;2022-09-24T09:13:59;8.15;;;5.65;;
19651;SDS011;9974;52.146;14.668;2022-09-24T09:16:48;7.78;;;5.28;;
19651;SDS011;9974;52.146;14.668;2022-09-24T09:19:30;8.18;;;5.13;;
19651;SDS011;9974;52.146;14.668;2022-09-24T09:22:04;9.60;;;5.65;;
19651;SDS011;9974;52.146;14.668;2022-09-24T09:24:48;9.63;;;5.75;;
19651;SDS011;9974;52.146;14.668;2022-09-24T09:27:17;11.27;;;6.68;;
19651;SDS011;9974;52.146;14.668;2022-09-24T09:29:47;10.38;;;5.82;;
19651;SDS011;9974;52.146;14.668;2022-09-24T09:38:20;7.30;;;5.55;;
19651;SDS011;9974;52.146;14.668;2022-09-24T09:43:44;7.28;;;4.97;;
19651;SDS011;9974;52.146;14.668;2022-09-24T09:48:49;8.73;;;5.63;;
19651;SDS011;9974;52.146;14.668;2022-09-24T09:51:18;9.30;;;5.43;;
19651;SDS011;9974;52.146;14.668;2022-09-24T09:53:53;9.95;;;5.15;;
19651;SDS011;9974;52.146;14.668;2022-09-24T09:56:24;7.72;;;5.45;;
19651;SDS011;9974;52.146;14.668;2022-09-24T09:59:02;8.00;;;5.32;;
19651;SDS011;9974;52.146;14.668;2022-09-24T10:01:44;7.70;;;5.05;;
19651;SDS011;9974;52.146;14.668;2022-09-24T10:04:32;8.68;;;5.20;;
19651;SDS011;9974;52.146;14.668;2022-09-24T10:07:06;7.93;;;5.30;;
19651;SDS011;9974;52.146;14.668;2022-09-24T10:09:32;7.32;;;5.15;;
19651;SDS011;9974;52.146;14.668;2022-09-24T10:15:02;8.32;;;5.05;;
19651;SDS011;9974;52.146;14.668;2022-09-24T10:17:39;6.85;;;5.22;;
19651;SDS011;9974;52.146;14.668;2022-09-24T10:22:57;9.60;;;5.97;;
19651;SDS011;9974;52.146;14.668;2022-09-24T10:25:26;7.28;;;4.50;;
19651;SDS011;9974;52.146;14.668;2022-09-24T10:28:27;6.55;;;4.63;;
19651;SDS011;9974;52.146;14.668;2022-09-24T10:31:21;7.47;;;4.15;;
19651;SDS011;9974;52.146;14.668;2022-09-24T10:33:54;11.20;;;4.78;;
19651;SDS011;9974;52.146;14.668;2022-09-24T10:36:23;8.10;;;5.57;;
19651;SDS011;9974;52.146;14.668;2022-09-24T10:41:32;6.65;;;4.32;;
19651;SDS011;9974;52.146;14.668;2022-09-24T10:44:00;9.57;;;5.55;;
19651;SDS011;9974;52.146;14.668;2022-09-24T10:46:39;6.75;;;4.20;;
19651;SDS011;9974;52.146;14.668;2022-09-24T10:57:20;9.05;;;3.95;;
19651;SDS011;9974;52.146;14.668;2022-09-24T11:00:22;4.95;;;3.78;;
19651;SDS011;9974;52.146;14.668;2022-09-24T11:02:57;7.32;;;4.63;;
19651;SDS011;9974;52.146;14.668;2022-09-24T11:06:16;7.93;;;4.68;;
19651;SDS011;9974;52.146;14.668;2022-09-24T11:08:55;5.68;;;3.60;;
19651;SDS011;9974;52.146;14.668;2022-09-24T11:16:54;5.72;;;3.60;;
19651;SDS011;9974;52.146;14.668;2022-09-24T11:22:45;5.65;;;3.47;;
19651;SDS011;9974;52.146;14.668;2022-09-24T11:37:15;7.88;;;3.92;;
19651;SDS011;9974;52.146;14.668;2022-09-24T11:46:16;5.97;;;3.22;;
19651;SDS011;9974;52.146;14.668;2022-09-24T11:49:25;6.35;;;3.85;;
19651;SDS011;9974;52.146;14.668;2022-09-24T11:52:32;6.25;;;3.55;;
19651;SDS011;9974;52.146;14.668;2022-09-24T11:55:18;5.47;;;3.65;;
19651;SDS011;9974;52.146;14.668;2022-09-24T11:58:36;5.00;;;3.30;;
19651;SDS011;9974;52.146;14.668;2022-09-24T12:00:58;6.60;;;3.85;;
19651;SDS011;9974;52.146;14.668;2022-09-24T12:03:35;4.80;;;3.15;;
19651;SDS011;9974;52.146;14.668;2022-09-24T12:07:01;6.53;;;3.88;;
19651;SDS011;9974;52.146;14.668;2022-09-24T12:09:42;5.50;;;3.58;;
19651;SDS011;9974;52.146;14.668;2022-09-24T12:15:04;6.63;;;3.60;;
19651;SDS011;9974;52.146;14.668;2022-09-24T12:18:02;6.55;;;3.75;;
19651;SDS011;9974;52.146;14.668;2022-09-24T12:20:44;4.68;;;3.20;;
19651;SDS011;9974;52.146;14.668;2022-09-24T12:23:27;5.50;;;3.53;;
19651;SDS011;9974;52.146;14.668;2022-09-24T12:25:57;5.57;;;3.30;;
19651;SDS011;9974;52.146;14.668;2022-09-24T12:28:25;4.97;;;3.38;;
19651;SDS011;9974;52.146;14.668;2022-09-24T12:31:31;9.27;;;4.40;;
19651;SDS011;9974;52.146;14.668;2022-09-24T12:34:48;6.18;;;3.58;;
19651;SDS011;9974;52.146;14.668;2022-09-24T12:37:40;8.23;;;4.80;;
19651;SDS011;9974;52.146;14.668;2022-09-24T12:42:58;6.15;;;3.90;;
19651;SDS011;9974;52.146;14.668;2022-09-24T12:45:28;6.57;;;4.03;;
19651;SDS011;9974;52.146;14.668;2022-09-24T12:47:56;6.65;;;4.05;;
19651;SDS011;9974;52.146;14.668;2022-09-24T12:50:27;7.85;;;4.20;;
19651;SDS011;9974;52.146;14.668;2022-09-24T12:52:58;13.27;;;4.18;;
19651;SDS011;9974;52.146;14.668;2022-09-24T12:55:26;5.03;;;3.10;;
19651;SDS011;9974;52.146;14.668;2022-09-24T12:57:55;6.60;;;3.55;;
19651;SDS011;9974;52.146;14.668;2022-09-24T13:03:05;5.45;;;3.72;;
19651;SDS011;9974;52.146;14.668;2022-09-24T13:05:56;5.75;;;3.10;;
19651;SDS011;9974;52.146;14.668;2022-09-24T13:08:24;6.57;;;4.13;;
19651;SDS011;9974;52.146;14.668;2022-09-24T13:11:01;7.82;;;3.78;;
19651;SDS011;9974;52.146;14.668;2022-09-24T13:13:46;4.07;;;2.92;;
19651;SDS011;9974;52.146;14.668;2022-09-24T13:16:40;4.82;;;3.05;;
19651;SDS011;9974;52.146;14.668;2022-09-24T13:19:20;5.78;;;3.80;;
19651;SDS011;9974;52.146;14.668;2022-09-24T13:22:05;6.82;;;3.50;;
19651;SDS011;9974;52.146;14.668;2022-09-24T13:24:46;6.40;;;3.22;;
19651;SDS011;9974;52.146;14.668;2022-09-24T13:27:22;6.35;;;4.00;;
19651;SDS011;9974;52.146;14.668;2022-09-24T13:32:31;6.40;;;3.45;;
19651;SDS011;9974;52.146;14.668;2022-09-24T13:35:02;5.82;;;3.58;;
19651;SDS011;9974;52.146;14.668;2022-09-24T13:37:38;7.35;;;3.83;;
19651;SDS011;9974;52.146;14.668;2022-09-24T13:40:14;5.00;;;3.40;;
19651;SDS011;9974;52.146;14.668;2022-09-24T13:42:46;4.72;;;3.63;;
19651;SDS011;9974;52.146;14.668;2022-09-24T13:45:27;12.85;;;4.72;;
19651;SDS011;9974;52.146;14.668;2022-09-24T13:47:53;5.65;;;3.53;;
19651;SDS011;9974;52.146;14.668;2022-09-24T13:50:27;6.05;;;3.65;;
19651;SDS011;9974;52.146;14.668;2022-09-24T13:53:01;5.25;;;3.15;;
19651;SDS011;9974;52.146;14.668;2022-09-24T13:55:36;5.82;;;3.50;;
19651;SDS011;9974;52.146;14.668;2022-09-24T14:01:09;5.28;;;3.55;;
19651;SDS011;9974;52.146;14.668;2022-09-24T14:03:39;5.47;;;2.95;;
19651;SDS011;9974;52.146;14.668;2022-09-24T14:08:39;5.93;;;3.42;;
19651;SDS011;9974;52.146;14.668;2022-09-24T14:11:16;3.40;;;2.63;;
19651;SDS011;9974;52.146;14.668;2022-09-24T14:13:44;7.72;;;3.72;;
19651;SDS011;9974;52.146;14.668;2022-09-24T14:16:16;6.28;;;3.55;;
19651;SDS011;9974;52.146;14.668;2022-09-24T14:18:44;4.72;;;3.40;;
19651;SDS011;9974;52.146;14.668;2022-09-24T14:21:12;6.53;;;3.65;;
19651;SDS011;9974;52.146;14.668;2022-09-24T14:23:52;5.60;;;2.88;;
19651;SDS011;9974;52.146;14.668;2022-09-24T14:26:40;4.32;;;3.13;;
19651;SDS011;9974;52.146;14.668;2022-09-24T14:29:17;4.63;;;3.20;;
19651;SDS011;9974;52.146;14.668;2022-09-24T14:31:58;5.20;;;3.05;;
19651;SDS011;9974;52.146;14.668;2022-09-24T14:34:28;6.57;;;2.70;;
19651;SDS011;9974;52.146;14.668;2022-09-24T14:37:07;4.22;;;2.67;;
19651;SDS011;9974;52.146;14.668;2022-09-24T14:39:57;8.45;;;3.15;;
19651;SDS011;9974;52.146;14.668;2022-09-24T14:42:31;5.22;;;3.00;;
19651;SDS011;9974;52.146;14.668;2022-09-24T14:45:16;3.80;;;2.45;;
19651;SDS011;9974;52.146;14.668;2022-09-24T14:48:03;5.55;;;2.50;;
19651;SDS011;9974;52.146;14.668;2022-09-24T14:50:42;4.05;;;2.53;;
19651;SDS011;9974;52.146;14.668;2022-09-24T14:53:12;4.32;;;2.88;;
19651;SDS011;9974;52.146;14.668;2022-09-24T14:55:47;3.05;;;2.47;;
19651;SDS011;9974;52.146;14.668;2022-09-24T14:58:35;5.30;;;3.17;;
19651;SDS011;9974;52.146;14.668;2022-09-24T15:01:04;5.10;;;2.90;;
19651;SDS011;9974;52.146;14.668;2022-09-24T15:03:42;5.50;;;3.15;;
19651;SDS011;9974;52.146;14.668;2022-09-24T15:06:19;4.05;;;2.40;;
19651;SDS011;9974;52.146;14.668;2022-09-24T15:08:53;4.88;;;2.95;;
19651;SDS011;9974;52.146;14.668;2022-09-24T15:11:46;7.38;;;2.45;;
19651;SDS011;9974;52.146;14.668;2022-09-24T15:16:42;3.47;;;2.50;;
19651;SDS011;9974;52.146;14.668;2022-09-24T15:19:18;3.05;;;2.35;;
19651;SDS011;9974;52.146;14.668;2022-09-24T15:21:45;4.78;;;2.22;;
19651;SDS011;9974;52.146;14.668;2022-09-24T15:24:16;4.45;;;2.42;;
19651;SDS011;9974;52.146;14.668;2022-09-24T15:26:45;4.82;;;2.50;;
19651;SDS011;9974;52.146;14.668;2022-09-24T15:29:21;4.40;;;2.50;;
19651;SDS011;9974;52.146;14.668;2022-09-24T15:31:49;3.72;;;2.53;;
19651;SDS011;9974;52.146;14.668;2022-09-24T15:34:15;5.55;;;2.45;;
19651;SDS011;9974;52.146;14.668;2022-09-24T15:36:41;4.78;;;2.63;;
19651;SDS011;9974;52.146;14.668;2022-09-24T15:39:08;4.20;;;2.70;;
19651;SDS011;9974;52.146;14.668;2022-09-24T15:41:34;5.45;;;3.47;;
19651;SDS011;9974;52.146;14.668;2022-09-24T15:44:00;4.47;;;2.70;;
19651;SDS011;9974;52.146;14.668;2022-09-24T15:46:26;5.20;;;2.70;;
19651;SDS011;9974;52.146;14.668;2022-09-24T15:48:52;3.83;;;2.60;;
19651;SDS011;9974;52.146;14.668;2022-09-24T15:51:18;4.65;;;2.47;;
19651;SDS011;9974;52.146;14.668;2022-09-24T15:53:47;4.00;;;2.80;;
19651;SDS011;9974;52.146;14.668;2022-09-24T15:56:14;6.18;;;3.05;;
19651;SDS011;9974;52.146;14.668;2022-09-24T15:58:40;4.47;;;2.88;;
19651;SDS011;9974;52.146;14.668;2022-09-24T16:01:08;6.28;;;3.28;;
19651;SDS011;9974;52.146;14.668;2022-09-24T16:03:40;6.20;;;3.13;;
19651;SDS011;9974;52.146;14.668;2022-09-24T16:06:08;5.95;;;3.80;;
19651;SDS011;9974;52.146;14.668;2022-09-24T16:08:35;5.22;;;3.75;;
19651;SDS011;9974;52.146;14.668;2022-09-24T16:11:01;6.68;;;3.92;;
19651;SDS011;9974;52.146;14.668;2022-09-24T16:13:29;6.30;;;3.75;;
19651;SDS011;9974;52.146;14.668;2022-09-24T16:15:55;8.38;;;4.63;;
19651;SDS011;9974;52.146;14.668;2022-09-24T16:18:21;8.10;;;5.13;;
19651;SDS011;9974;52.146;14.668;2022-09-24T16:20:49;6.32;;;4.68;;
19651;SDS011;9974;52.146;14.668;2022-09-24T16:23:16;6.75;;;4.90;;
19651;SDS011;9974;52.146;14.668;2022-09-24T16:25:55;7.32;;;5.22;;
19651;SDS011;9974;52.146;14.668;2022-09-24T16:28:23;8.63;;;4.85;;
19651;SDS011;9974;52.146;14.668;2022-09-24T16:30:50;7.32;;;5.00;;
19651;SDS011;9974;52.146;14.668;2022-09-24T16:33:16;7.20;;;5.32;;
19651;SDS011;9974;52.146;14.668;2022-09-24T16:35:42;8.32;;;6.35;;
19651;SDS011;9974;52.146;14.668;2022-09-24T16:38:09;9.82;;;5.95;;
19651;SDS011;9974;52.146;14.668;2022-09-24T16:40:35;9.15;;;6.03;;
19651;SDS011;9974;52.146;14.668;2022-09-24T16:43:01;7.13;;;5.05;;
19651;SDS011;9974;52.146;14.668;2022-09-24T16:45:27;8.27;;;5.57;;
19651;SDS011;9974;52.146;14.668;2022-09-24T16:47:54;7.72;;;4.60;;